BENVENUTI AL 154° GRUPPO VIRTUALE

Please enter the email address associated with your User account. Your username will be emailed to the email address on file.

METAR & TAF

[Source: ADDS]
METAR
LIPL 200755Z 23002KT CAVOK 22/17 Q1026 RMK SKC VIS MIN 9999 WIND THR31 24003KT WIND THR13 19003KT BLU =
LIPL 200500Z 2006/2015 VRB03KT CAVOK
TAF
LIPL 200500Z 2006/2015 VRB03KT CAVOK =

Notice: Undefined index: sun in /web/htdocs/www.154gruppovirtuale.it/home/modules/mod_wx/tmpl/default.php on line 13

Official Tools

CombatFlite Logo  
 
   

Network

Simulation Platform